Rohri, Pakistan

3:54 PM PKT on August 28, 2014 (GMT +0500)
Sukkur | Change Station
CLOSE
Current Station
Airport
Location: Sukkur,
Elevation: 197 ft
Nearby Weather Stations

Elev 197 ft 27.72 °N, 68.79 °E | Updated 54 minutes ago

Haze
Haze
100 °F
Feels Like 123 °F
N
5
Wind Variable Wind from North

Today
High -- | Low -- °F
--% Chance of Precip.
Yesterday
High -- | Low -- °F
Precip. -- in
6:01 AM 6:49 PM
Waxing Crescent, 7% visible
Pressure 29.59 in
Visibility 3.7 miles
Clouds
Heat Index 123 °F
Dew Point 81 °F
Humidity 53%
Rainfall 0.00 in
Snow Depth Not available.
UV Not available.
Pollen Not available.
Air Quality Not available.
Flu Activity Not available.
METAR OPSK 281000Z 36004KT 6000 HZ NSC 38/27 Q1002 RH.54 PC

More Conditions Fewer Conditions

Pressure 29.59 in
Visibility 3.7 miles
Clouds
Heat Index 123 °F
Dew Point 81 °F
Humidity 53%
Rainfall 0.00 in
Snow Depth Not available.
UV Not available.
Pollen Not available.
Air Quality Not available.
Flu Activity Not available.
METAR OPSK 281000Z 36004KT 6000 HZ NSC 38/27 Q1002 RH.54 PC

More Conditions Fewer Conditions

10-Day Weather Forecast

Almanac

Astronomy

Aug. 28, 2014 Rise Set
Actual Time 6:01 AM PKT 6:49 PM PKT
Civil Twilight 5:37 AM PKT 7:13 PM PKT
Nautical Twilight 5:08 AM PKT 7:41 PM PKT
Astronomical Twilight 4:40 AM PKT 8:10 PM PKT
Moon 8:12 AM PKT 8:18 PM PKT
Length of Visible Light 13h 36m
Length of Day
12h 48m
Tomorrow will be 1m 34s shorter.
Waxing Crescent, 7% of the Moon is Illuminated
Today
Waxing Crescent
Sep 2
First Quarter
Sep 8
Full
Sep 15
Last Quarter
Sep 24
New

Yesterday's Extremes

Country Highs Country Lows

Community

WunderPhotos

Upload Photos

1,747,920 photos uploaded!

Nearby

Snow Depth

Not available.

Earthquake Activity

City Distance Mag. Time & Date
No recent earthquake activity has been reported nearby.
Minimum magnitude displayed is 2.5.

Coastal Water Temperatures

Place Temperature
No Stations Reporting

Nearby Weather Stations